createdAt,value
2023-04-12T00:02:18.124Z,95414.25
2023-04-12T00:07:40.055Z,95409.97
2023-04-12T00:13:02.030Z,95412.31
2023-04-12T00:18:24.033Z,95392.84
2023-04-12T00:23:46.026Z,95387.38
2023-04-12T00:29:08.035Z,95378.84
2023-04-12T00:34:30.031Z,95366.75
2023-04-12T00:39:52.037Z,95358.19
2023-04-12T00:45:15.039Z,95355.47
2023-04-12T00:50:37.007Z,95343.06
2023-04-12T00:55:59.017Z,95341.09
2023-04-12T01:01:23.058Z,95339.56
2023-04-12T01:07:10.040Z,95331.41
2023-04-12T01:12:57.027Z,95316.22
2023-04-12T01:18:23.030Z,95322.06
2023-04-12T01:24:02.048Z,95315.84
2023-04-12T01:29:29.001Z,95303.00
2023-04-12T01:34:51.990Z,95304.56
2023-04-12T01:40:15.997Z,95296.41
2023-04-12T01:45:38.110Z,95289.00
2023-04-12T01:51:12.029Z,95276.19
2023-04-12T01:56:35.995Z,95271.91
2023-04-12T02:01:59.077Z,95275.00
2023-04-12T02:07:20.985Z,95262.97
2023-04-12T02:12:43.014Z,95266.84
2023-04-12T02:18:06.041Z,95257.91
2023-04-12T02:23:30.015Z,95246.63
2023-04-12T02:28:52.976Z,95234.56
2023-04-12T02:34:14.987Z,95235.38
2023-04-12T02:39:44.974Z,95232.25
2023-04-12T02:45:08.989Z,95219.81
2023-04-12T02:50:32.005Z,95215.53
2023-04-12T02:56:04.888Z,95207.75
2023-04-12T03:01:27.965Z,95210.88
2023-04-12T03:07:11.962Z,95204.69
2023-04-12T03:12:37.973Z,95199.22
2023-04-12T03:18:05.030Z,95200.75
2023-04-12T03:23:32.988Z,95204.25
2023-04-12T03:29:08.899Z,95211.25
2023-04-12T03:34:33.993Z,95222.16
2023-04-12T03:40:01.000Z,95224.06
2023-04-12T03:45:23.962Z,95212.41
2023-04-12T03:50:50.947Z,95198.03
2023-04-12T03:56:13.972Z,95178.97
2023-04-12T04:01:41.015Z,95175.88
2023-04-12T04:07:02.960Z,95170.81
2023-04-12T04:12:28.950Z,95171.59
2023-04-12T04:17:53.993Z,95178.97
2023-04-12T04:23:30.980Z,95172.00
2023-04-12T04:28:53.952Z,95172.41
2023-04-12T04:34:22.963Z,95161.53
2023-04-12T04:39:54.948Z,95154.53
2023-04-12T04:45:21.971Z,95157.25
2023-04-12T04:50:43.940Z,95149.09
2023-04-12T04:56:12.933Z,95150.63
2023-04-12T05:01:43.044Z,95151.41
2023-04-12T05:07:05.951Z,95139.00
2023-04-12T05:12:29.953Z,95135.09
2023-04-12T05:17:51.983Z,95134.72
2023-04-12T05:23:13.932Z,95137.81
2023-04-12T05:28:35.929Z,95140.94
2023-04-12T05:34:00.933Z,95127.72
2023-04-12T05:39:28.947Z,95119.19
2023-04-12T05:44:51.956Z,95103.66
2023-04-12T05:50:13.917Z,95096.66
2023-04-12T05:55:38.095Z,95094.34
2023-04-12T06:01:00.957Z,95083.06
2023-04-12T06:06:22.963Z,95085.78
2023-04-12T06:11:45.961Z,95092.78
2023-04-12T06:17:07.929Z,95086.13
2023-04-12T06:22:36.951Z,95077.19
2023-04-12T06:27:59.916Z,95067.44
2023-04-12T06:33:29.901Z,95063.19
2023-04-12T06:38:57.084Z,95061.63
2023-04-12T06:44:19.250Z,95052.31
2023-04-12T06:49:40.913Z,95047.63
2023-04-12T06:55:02.901Z,95046.06
2023-04-12T07:00:24.913Z,95037.16
2023-04-12T07:05:46.901Z,95033.63
2023-04-12T07:16:35.971Z,95036.72
2023-04-12T07:21:57.896Z,95014.50
2023-04-12T07:27:19.935Z,94998.91
2023-04-12T07:32:41.954Z,94994.63
2023-04-12T07:38:03.899Z,94979.78
2023-04-12T07:43:33.117Z,94982.88
2023-04-12T07:48:54.969Z,94972.34
2023-04-12T07:54:16.893Z,94971.56
2023-04-12T07:59:38.880Z,94961.03
2023-04-12T08:05:00.895Z,94962.19
2023-04-12T08:10:22.875Z,94963.72
2023-04-12T08:15:44.902Z,94961.00
2023-04-12T08:21:06.909Z,94941.56
2023-04-12T08:26:28.858Z,94947.78
2023-04-12T08:31:50.890Z,94938.06
2023-04-12T08:37:12.871Z,94933.41
2023-04-12T08:42:34.903Z,94928.34
2023-04-12T08:47:57.912Z,94929.91
2023-04-12T08:53:19.907Z,94921.72
2023-04-12T08:58:42.853Z,94911.16
2023-04-12T09:04:05.161Z,94908.00
2023-04-12T09:09:26.902Z,94893.56
2023-04-12T09:14:51.865Z,94892.31
2023-04-12T09:20:13.895Z,94872.47
2023-04-12T09:25:52.002Z,94871.28
2023-04-12T09:31:13.920Z,94867.31
2023-04-12T09:36:43.876Z,94850.50
2023-04-12T09:42:31.744Z,94844.19
2023-04-12T09:47:55.070Z,94837.88
2023-04-12T09:53:17.987Z,94829.25
2023-04-12T09:58:42.900Z,94823.75
2023-04-12T10:04:05.375Z,94814.34
2023-04-12T10:09:26.853Z,94804.22
2023-04-12T10:14:48.901Z,94789.34
2023-04-12T10:20:11.878Z,94785.72
2023-04-12T10:25:36.887Z,94774.03
2023-04-12T10:31:02.951Z,94763.00
2023-04-12T10:36:24.904Z,94757.06
2023-04-12T10:42:25.092Z,94741.03
2023-04-12T10:48:07.907Z,94731.59
2023-04-12T10:53:31.858Z,94740.44
2023-04-12T10:59:02.068Z,94732.97
2023-04-12T11:04:28.929Z,94736.03
2023-04-12T11:09:58.852Z,94726.59
2023-04-12T11:15:23.824Z,94710.88
2023-04-12T11:20:45.997Z,94717.00
2023-04-12T11:26:09.817Z,94707.91
2023-04-12T11:31:33.877Z,94691.81
2023-04-12T11:36:59.847Z,94699.94
2023-04-12T11:42:36.839Z,94687.50
2023-04-12T11:47:58.850Z,94675.44
2023-04-12T11:53:25.819Z,94666.06
2023-04-12T11:58:47.831Z,94666.41
2023-04-12T12:04:10.368Z,94661.25
2023-04-12T12:09:32.822Z,94660.72
2023-04-12T12:14:56.839Z,94657.16
2023-04-12T12:20:27.790Z,94663.47
2023-04-12T12:25:49.804Z,94657.59
2023-04-12T12:31:16.826Z,94645.09
2023-04-12T12:36:49.814Z,94650.22
2023-04-12T12:42:14.805Z,94641.97
2023-04-12T12:47:36.883Z,94631.41
2023-04-12T12:52:59.804Z,94626.63
2023-04-12T12:58:22.798Z,94614.16
2023-04-12T13:03:44.985Z,94601.53
2023-04-12T13:09:06.841Z,94599.44
2023-04-12T13:14:28.803Z,94572.25
2023-04-12T13:19:50.795Z,94567.69
2023-04-12T13:25:13.798Z,94556.88
2023-04-12T13:30:35.804Z,94543.19
2023-04-12T13:35:57.801Z,94542.59
2023-04-12T13:41:19.820Z,94520.22
2023-04-12T13:46:41.847Z,94516.63
2023-04-12T13:52:03.791Z,94526.38
2023-04-12T13:57:25.786Z,94523.72
2023-04-12T14:02:47.874Z,94510.03
2023-04-12T14:08:09.792Z,94501.41
2023-04-12T14:13:31.796Z,94500.22
2023-04-12T14:18:53.844Z,94501.75
2023-04-12T14:24:15.831Z,94495.16
2023-04-12T14:29:37.833Z,94492.66
2023-04-12T14:34:59.797Z,94483.19
2023-04-12T14:40:21.787Z,94483.34
2023-04-12T14:45:43.784Z,94476.25
2023-04-12T14:51:05.754Z,94463.22
2023-04-12T14:56:41.430Z,94468.97
2023-04-12T15:02:05.879Z,94465.78
2023-04-12T15:07:27.786Z,94452.44
2023-04-12T15:12:49.793Z,94465.63
2023-04-12T15:18:11.763Z,94464.75
2023-04-12T15:23:40.793Z,94458.00
2023-04-12T15:29:02.758Z,94458.34
2023-04-12T15:34:24.767Z,94460.22
2023-04-12T15:39:48.774Z,94457.38
2023-04-12T15:45:10.794Z,94438.53
2023-04-12T15:50:32.776Z,94431.41
2023-04-12T15:56:03.770Z,94437.25
2023-04-12T16:01:26.804Z,94431.34
2023-04-12T16:06:48.785Z,94422.69
2023-04-12T16:12:10.760Z,94432.44
2023-04-12T16:17:32.843Z,94424.56
2023-04-12T16:22:55.768Z,94418.56
2023-04-12T16:28:18.740Z,94410.97
2023-04-12T16:33:41.639Z,94408.16
2023-04-12T16:39:05.773Z,94402.56
2023-04-12T16:44:27.760Z,94376.69
2023-04-12T16:49:49.762Z,94368.81
2023-04-12T16:55:12.784Z,94362.56
2023-04-12T17:00:35.734Z,94361.81
2023-04-12T17:05:57.753Z,94364.34
2023-04-12T17:11:19.754Z,94371.91
2023-04-12T17:16:41.827Z,94370.16
2023-04-12T17:22:04.759Z,94357.97
2023-04-12T17:27:26.843Z,94358.75
2023-04-12T17:32:48.830Z,94343.19
2023-04-12T17:38:10.738Z,94341.34
2023-04-12T17:43:32.750Z,94336.72
2023-04-12T17:48:54.753Z,94330.25
2023-04-12T17:54:16.752Z,94324.56
2023-04-12T17:59:38.716Z,94320.41
2023-04-12T18:05:00.744Z,94328.81
2023-04-12T18:10:25.744Z,94333.31
2023-04-12T18:15:47.743Z,94330.78
2023-04-12T18:21:10.739Z,94328.16
2023-04-12T18:26:32.748Z,94353.63
2023-04-12T18:31:54.750Z,94397.72
2023-04-12T18:37:16.752Z,94405.88
2023-04-12T18:42:38.735Z,94419.16
2023-04-12T18:48:00.781Z,94428.34
2023-04-12T18:53:22.767Z,94426.34
2023-04-12T18:58:54.644Z,94423.53
2023-04-12T19:04:16.884Z,94425.72
2023-04-12T19:09:38.728Z,94436.16
2023-04-12T19:15:00.847Z,94441.88
2023-04-12T19:20:22.724Z,94443.75
2023-04-12T19:25:44.734Z,94436.66
2023-04-12T19:31:08.926Z,94445.63
2023-04-12T19:36:31.710Z,94459.50
2023-04-12T19:41:55.701Z,94467.88
2023-04-12T19:47:17.722Z,94470.72
2023-04-12T19:52:39.700Z,94485.84
2023-04-12T19:58:02.748Z,94494.38
2023-04-12T20:03:24.774Z,94499.59
2023-04-12T20:08:46.694Z,94500.22
2023-04-12T20:14:08.874Z,94476.03
2023-04-12T20:19:33.703Z,94471.25
2023-04-12T20:24:55.714Z,94471.59
2023-04-12T20:30:17.713Z,94467.91
2023-04-12T20:35:39.680Z,94467.84
2023-04-12T20:41:01.699Z,94454.06
2023-04-12T20:46:23.782Z,94445.84
2023-04-12T20:51:46.701Z,94461.41
2023-04-12T20:57:10.703Z,94466.09
2023-04-12T21:02:32.853Z,94468.44
2023-04-12T21:07:54.692Z,94474.72
2023-04-12T21:13:18.668Z,94478.78
2023-04-12T21:18:40.687Z,94498.06
2023-04-12T21:24:09.695Z,94513.13
2023-04-12T21:29:33.104Z,94512.50
2023-04-12T21:34:54.702Z,94527.09
2023-04-12T21:40:18.697Z,94528.38
2023-04-12T21:45:40.715Z,94541.69
2023-04-12T21:51:02.679Z,94548.50
2023-04-12T21:56:24.688Z,94560.34
2023-04-12T22:01:46.764Z,94553.75
2023-04-12T22:07:12.705Z,94565.88
2023-04-12T22:12:34.669Z,94567.09
2023-04-12T22:17:56.741Z,94580.41
2023-04-12T22:23:25.673Z,94587.13
2023-04-12T22:28:47.688Z,94595.03
2023-04-12T22:34:10.690Z,94597.00
2023-04-12T22:39:32.666Z,94612.69
2023-04-12T22:44:56.729Z,94598.63
2023-04-12T22:50:19.653Z,94609.53
2023-04-12T22:55:43.681Z,94615.81
2023-04-12T23:01:05.709Z,94624.47
2023-04-12T23:06:27.691Z,94634.13
2023-04-12T23:11:49.662Z,94633.78
2023-04-12T23:17:11.669Z,94632.69
2023-04-12T23:22:55.367Z,94625.44
2023-04-12T23:28:36.666Z,94627.81
2023-04-12T23:33:58.925Z,94624.44
2023-04-12T23:39:20.677Z,94638.19
2023-04-12T23:44:42.661Z,94625.84
2023-04-12T23:50:04.656Z,94634.50
2023-04-12T23:55:26.689Z,94643.66
